#dbistima — V2PX5 — position and weather

sailwx.info

Track history (hours):
 
Tides and Currents Weather Stations Pressure Air Temp Water Temp Dewpoint Dewpoint Depression Visibility Wind Speed Wind Dir Waves Ship Positions

#dbistima

Last reported at 2014-Dec-21 02:19 UTC. Time now 2014-Dec-21 05:28 UTC.
Position N 35°60' W 005°25'.

MMSI: 304010972.

Date/timePositionNaut miles runAvg speedWind from/ knotsBaromVisibWave heightAir tempDewpointWater temp
2014-Dec-21 02:19N 35°60' W 005°25'7 9.2
2014-Dec-21 01:34N 35°55' W 005°18'2 1.5
2014-Dec-21 00:34N 35°54' W 005°19'0 0.0
2014-Dec-20 23:33N 35°54' W 005°19'0 0.0
2014-Dec-20 22:34N 35°54' W 005°19'0 0.0
2014-Dec-20 21:34N 35°54' W 005°19'1 1.0
2014-Dec-20 20:34N 35°55' W 005°18'2 1.8
2014-Dec-20 19:33N 35°56' W 005°18'1 0.6
2014-Dec-20 18:34N 35°56' W 005°18'1 0.9
2014-Dec-20 17:34N 35°56' W 005°20'5 5.0
2014-Dec-20 16:34N 36°01' W 005°21'  
2014-Dec-17 15:09N 36°11' W 005°25'0 0.0
2014-Dec-17 11:15N 36°11' W 005°25'7 1.0
2014-Dec-17 04:13N 36°04' W 005°22'6 8.2
2014-Dec-17 03:33N 35°59' W 005°25'  
Track history (hours):
 
Tides and Currents Weather Stations Pressure Air Temp Water Temp Dewpoint Dewpoint Depression Visibility Wind Speed Wind Dir Waves Ship Positions

#dbistima

Last reported at 2014-Dec-21 02:19 UTC. Time now 2014-Dec-21 05:28 UTC.
Position N 35°60' W 005°25'.

MMSI: 304010972.

Date/timePositionNaut miles runAvg speedWind from/ knotsBaromVisibWave heightAir tempDewpointWater temp
2014-Dec-21 02:19N 35°60' W 005°25'7 9.2
2014-Dec-21 01:34N 35°55' W 005°18'2 1.5
2014-Dec-21 00:34N 35°54' W 005°19'0 0.0
2014-Dec-20 23:33N 35°54' W 005°19'0 0.0
2014-Dec-20 22:34N 35°54' W 005°19'0 0.0
2014-Dec-20 21:34N 35°54' W 005°19'1 1.0
2014-Dec-20 20:34N 35°55' W 005°18'2 1.8
2014-Dec-20 19:33N 35°56' W 005°18'1 0.6
2014-Dec-20 18:34N 35°56' W 005°18'1 0.9
2014-Dec-20 17:34N 35°56' W 005°20'5 5.0
2014-Dec-20 16:34N 36°01' W 005°21'  
2014-Dec-17 15:09N 36°11' W 005°25'0 0.0
2014-Dec-17 11:15N 36°11' W 005°25'7 1.0
2014-Dec-17 04:13N 36°04' W 005°22'6 8.2
2014-Dec-17 03:33N 35°59' W 005°25'  

Dump ship's entire track history